Thunderstorms From: 22-05-2018 15:00 Until: 23-05-2018 15:00 warning for: Thunderstorms Level: Yellow info button

Although rather usual in this region, locally or potentially dangerous phenomena are expected. (such as local winds, summer thunderstorms, rising streams or high waves) Be aware and pay attention to the latest weather updates, especially if you carry out activities exposed to weather or close to a stream or shoreline. 


Meteo18 Weather Cam more information Meteo18 Weather Cam


warning for Thunderstorms more information blitzortung!


Rain radar more information rain snow radar


Visit our other weather sites:

Template documentation
and downloads

And another site



Weather Underground History page Text

Daily Summary for March 14, 2017 Units:  English    Metric   Both
« Previous Day
Next Day »
Daily Weekly Monthly Yearly Custom
  High: Low: Average:
Temperature: TemperatureC °F 6.2 °F 10 °F
Dew Point: DewpointC °F 4.2 °F 6.3 °F
Humidity: Humidity % 53 % 79 %
Wind Speed: WindSpeedKMH mph 0.0 mph 3.6 mph
Wind Gust: WindSpeedGustKMH mph - -
Wind:- - SW
Pressure: PressurehPa in 1033.1 in -
Precipitation: 0.0 in    
Historical Graphs
 
 
Tabular Data for March 14, 2017
Time Temperature Dew Point Pressure Wind Wind Speed Wind Gust Humidity Rainfall Rate (Hourly)
TemperatureC °F DewpointC °F PressurehPa in Calm     Humidity % HourlyPrecipMM in
00:02 8.9 °F 6.9 °F 1033.1 in NNW 1.6 mph 9.7 mph 87 % 0.0 in
00:07 8.9 °F 6.9 °F 1033.1 in NNE 4.8 mph 9.7 mph 87 % 0.0 in
00:12 8.8 °F 6.8 °F 1033.1 in Calm   9.7 mph 87 % 0.0 in
00:17 8.8 °F 6.8 °F 1033.1 in NNW 1.6 mph 9.7 mph 87 % 0.0 in
00:22 8.8 °F 6.8 °F 1033.1 in NNW 1.6 mph 11.3 mph 87 % 0.0 in
00:27 8.8 °F 6.8 °F 1033.1 in North 3.2 mph 11.3 mph 87 % 0.0 in
00:32 8.7 °F 6.7 °F 1033.1 in Calm   8.0 mph 87 % 0.0 in
00:37 8.7 °F 6.7 °F 1033.1 in NNE 4.8 mph 11.3 mph 87 % 0.0 in
00:42 8.7 °F 6.7 °F 1033.4 in NNW 3.2 mph 11.3 mph 87 % 0.0 in
00:52 8.7 °F 6.7 °F 1033.4 in NNW 6.4 mph 11.3 mph 87 % 0.0 in
00:57 8.7 °F 6.7 °F 1033.4 in NNW 6.4 mph 12.9 mph 87 % 0.0 in
01:02 8.6 °F 6.6 °F 1033.4 in NNW 6.4 mph 12.9 mph 87 % 0.0 in
01:07 8.5 °F 6.6 °F 1033.4 in NNE 4.8 mph 12.9 mph 88 % 0.0 in
01:12 8.5 °F 6.6 °F 1033.4 in NNE 3.2 mph 11.3 mph 88 % 0.0 in
01:17 8.4 °F 6.5 °F 1033.4 in North 4.8 mph 11.3 mph 88 % 0.0 in
01:22 8.4 °F 6.5 °F 1033.4 in NNW 1.6 mph 11.3 mph 88 % 0.0 in
01:32 8.4 °F 6.5 °F 1033.7 in Calm   9.7 mph 88 % 0.0 in
01:42 8.2 °F 6.3 °F 1033.7 in NNW 1.6 mph 3.2 mph 88 % 0.0 in
01:47 8.3 °F 6.4 °F 1033.4 in NNW 1.6 mph 6.4 mph 88 % 0.0 in
01:52 8.3 °F 6.4 °F 1033.7 in NNW 3.2 mph 6.4 mph 88 % 0.0 in
01:57 8.3 °F 6.4 °F 1033.7 in NW 1.6 mph 6.4 mph 88 % 0.0 in
02:02 8.2 °F 6.3 °F 1033.7 in NW 1.6 mph 4.8 mph 88 % 0.0 in
02:12 8.1 °F 6.2 °F 1033.7 in NW 3.2 mph 4.8 mph 88 % 0.0 in
02:17 8.0 °F 6.1 °F 1033.7 in NNW 1.6 mph 4.8 mph 88 % 0.0 in
02:22 7.9 °F 6.2 °F 1033.7 in Calm   4.8 mph 89 % 0.0 in
02:27 7.9 °F 6.2 °F 1033.7 in NNW 3.2 mph 6.4 mph 89 % 0.0 in
02:32 7.9 °F 6.2 °F 1033.7 in Calm   6.4 mph 89 % 0.0 in
02:37 7.8 °F 6.1 °F 1033.7 in North 3.2 mph 4.8 mph 89 % 0.0 in
02:42 7.8 °F 6.1 °F 1033.7 in NNE 4.8 mph 6.4 mph 89 % 0.0 in
02:47 7.8 °F 6.1 °F 1033.7 in North 3.2 mph 6.4 mph 89 % 0.0 in
02:52 7.8 °F 6.3 °F 1033.4 in NNW 4.8 mph 6.4 mph 90 % 0.0 in
02:57 7.8 °F 6.1 °F 1033.4 in NNE 4.8 mph 8.0 mph 89 % 0.0 in
03:02 7.8 °F 6.1 °F 1033.4 in North 3.2 mph 8.0 mph 89 % 0.0 in
03:07 7.8 °F 6.1 °F 1033.4 in NNE 3.2 mph 8.0 mph 89 % 0.0 in
03:12 7.6 °F 5.9 °F 1033.7 in NNE 3.2 mph 8.0 mph 89 % 0.0 in
03:17 7.7 °F 6.2 °F 1033.7 in North 1.6 mph 8.0 mph 90 % 0.0 in
03:22 7.8 °F 6.3 °F 1033.4 in North 1.6 mph 8.0 mph 90 % 0.0 in
03:32 8.0 °F 6.1 °F 1033.4 in NNW 3.2 mph 9.7 mph 88 % 0.0 in
03:42 8.1 °F 6.2 °F 1033.4 in NNW 3.2 mph 8.0 mph 88 % 0.0 in
03:47 8.1 °F 6.2 °F 1033.4 in NNW 1.6 mph 8.0 mph 88 % 0.0 in
03:57 8.0 °F 6.1 °F 1033.4 in North 6.4 mph 8.0 mph 88 % 0.0 in
04:02 8.0 °F 6.1 °F 1033.4 in North 4.8 mph 11.3 mph 88 % 0.0 in
04:12 7.8 °F 5.9 °F 1033.4 in NNW 3.2 mph 11.3 mph 88 % 0.0 in
04:17 7.7 °F 5.8 °F 1033.4 in NNW 3.2 mph 9.7 mph 88 % 0.0 in
04:22 7.6 °F 5.7 °F 1033.4 in NW 6.4 mph 9.7 mph 88 % 0.0 in
04:27 7.7 °F 6.0 °F 1033.1 in NNW 8.0 mph 9.7 mph 89 % 0.0 in
04:32 7.7 °F 6.0 °F 1033.1 in North 4.8 mph 9.7 mph 89 % 0.0 in
04:37 7.6 °F 5.7 °F 1033.1 in NW 4.8 mph 9.7 mph 88 % 0.0 in
04:42 7.5 °F 5.8 °F 1033.1 in NW 3.2 mph 8.0 mph 89 % 0.0 in
04:52 7.3 °F 5.6 °F 1033.1 in NNW 4.8 mph 8.0 mph 89 % 0.0 in
04:57 7.2 °F 5.5 °F 1033.1 in NW 3.2 mph 8.0 mph 89 % 0.0 in
05:02 7.2 °F 5.7 °F 1033.1 in NW 1.6 mph 6.4 mph 90 % 0.0 in
05:12 7.1 °F 5.6 °F 1033.1 in NNW 3.2 mph 6.4 mph 90 % 0.0 in
05:17 7.1 °F 5.6 °F 1033.4 in NW 4.8 mph 8.0 mph 90 % 0.0 in
05:22 7.1 °F 5.6 °F 1033.1 in NW 1.6 mph 8.0 mph 90 % 0.0 in
05:32 7.2 °F 5.7 °F 1033.4 in North 1.6 mph 6.4 mph 90 % 0.0 in
05:37 7.1 °F 5.6 °F 1033.4 in NNW 3.2 mph 6.4 mph 90 % 0.0 in
05:42 7.1 °F 5.6 °F 1033.4 in NNW 1.6 mph 9.7 mph 90 % 0.0 in
05:47 6.9 °F 5.5 °F 1033.4 in NNW 3.2 mph 9.7 mph 91 % 0.0 in
05:52 6.9 °F 5.5 °F 1033.4 in NNW 1.6 mph 9.7 mph 91 % 0.0 in
05:57 6.9 °F 5.5 °F 1033.4 in North 4.8 mph 4.8 mph 91 % 0.0 in
06:02 6.9 °F 5.5 °F 1033.4 in NNW 1.6 mph 6.4 mph 91 % 0.0 in
06:12 6.6 °F 5.1 °F 1033.4 in Calm   6.4 mph 90 % 0.0 in
06:17 6.3 °F 4.9 °F 1033.4 in North 3.2 mph 4.8 mph 91 % 0.0 in
06:22 6.2 °F 4.8 °F 1033.4 in NNE 1.6 mph 4.8 mph 91 % 0.0 in
06:32 6.3 °F 5.3 °F 1033.4 in NNE 3.2 mph 3.2 mph 93 % 0.0 in
06:37 6.4 °F 5.4 °F 1033.4 in NNW 3.2 mph 6.4 mph 93 % 0.0 in
06:42 6.4 °F 5.4 °F 1033.7 in NNE 3.2 mph 6.4 mph 93 % 0.0 in
06:52 6.6 °F 5.4 °F 1033.7 in Calm   8.0 mph 92 % 0.0 in
07:02 6.6 °F 5.5 °F 1033.7 in NNE 4.8 mph 9.7 mph 93 % 0.0 in
07:12 6.7 °F 5.5 °F 1033.7 in NNE 3.2 mph 8.0 mph 92 % 0.0 in
07:17 6.8 °F 5.6 °F 1034.1 in NE 4.8 mph 8.0 mph 92 % 0.0 in
07:22 6.9 °F 5.7 °F 1034.1 in NNW 4.8 mph 8.0 mph 92 % 0.0 in
07:32 7.0 °F 5.8 °F 1034.1 in NNE 3.2 mph 12.9 mph 92 % 0.0 in
07:37 7.0 °F 5.8 °F 1034.1 in ENE 3.2 mph 12.9 mph 92 % 0.0 in
07:42 7.1 °F 5.9 °F 1034.1 in NNE 4.8 mph 12.9 mph 92 % 0.0 in
07:47 7.1 °F 5.9 °F 1034.1 in NE 1.6 mph 8.0 mph 92 % 0.0 in
07:52 7.1 °F 5.9 °F 1034.4 in NNW 4.8 mph 8.0 mph 92 % 0.0 in
07:57 7.2 °F 6.1 °F 1034.4 in NNW 3.2 mph 12.9 mph 93 % 0.0 in
08:02 7.1 °F 6.0 °F 1034.4 in NNE 3.2 mph 12.9 mph 93 % 0.0 in
08:07 7.1 °F 6.0 °F 1034.4 in NNE 8.0 mph 9.7 mph 93 % 0.0 in
08:12 7.1 °F 6.0 °F 1034.4 in NNE 6.4 mph 9.7 mph 93 % 0.0 in
08:17 7.1 °F 6.0 °F 1034.8 in North 4.8 mph 17.7 mph 93 % 0.0 in
08:22 7.2 °F 6.1 °F 1034.8 in NE 6.4 mph 17.7 mph 93 % 0.0 in
08:27 7.2 °F 6.1 °F 1034.8 in NNW 6.4 mph 14.5 mph 93 % 0.0 in
08:32 7.1 °F 6.0 °F 1034.8 in North 4.8 mph 14.5 mph 93 % 0.0 in
08:42 7.2 °F 6.1 °F 1034.8 in NE 1.6 mph 17.7 mph 93 % 0.0 in
08:52 7.3 °F 6.2 °F 1034.8 in NNE 16.1 mph 17.7 mph 93 % 0.0 in
08:57 7.2 °F 6.1 °F 1034.8 in NE 9.7 mph 17.7 mph 93 % 0.0 in
09:02 7.1 °F 6.0 °F 1034.8 in NNE 8.0 mph 17.7 mph 93 % 0.0 in
09:12 7.1 °F 6.2 °F 1035.1 in North 6.4 mph 20.9 mph 94 % 0.0 in
09:17 7.1 °F 6.2 °F 1035.1 in North 1.6 mph 20.9 mph 94 % 0.0 in
09:22 7.2 °F 6.3 °F 1035.1 in NNW 4.8 mph 17.7 mph 94 % 0.0 in
09:32 7.3 °F 6.4 °F 1035.1 in NE 4.8 mph 11.3 mph 94 % 0.0 in
09:42 7.3 °F 6.2 °F 1035.1 in NE 11.3 mph 16.1 mph 93 % 0.0 in
09:47 7.4 °F 6.3 °F 1035.1 in NNE 9.7 mph 17.7 mph 93 % 0.0 in
09:52 7.5 °F 6.4 °F 1035.1 in NNE 3.2 mph 17.7 mph 93 % 0.0 in
09:57 7.5 °F 6.4 °F 1035.1 in NNE 9.7 mph 17.7 mph 93 % 0.0 in
10:02 7.6 °F 6.5 °F 1035.1 in NNW 3.2 mph 14.5 mph 93 % 0.0 in
10:12 7.7 °F 6.6 °F 1035.1 in North 8.0 mph 12.9 mph 93 % 0.0 in
10:17 7.8 °F 6.7 °F 1035.1 in NNE 14.5 mph 14.5 mph 93 % 0.0 in
10:22 7.9 °F 6.8 °F 1035.1 in NNW 4.8 mph 12.9 mph 93 % 0.0 in
10:32 7.9 °F 6.8 °F 1035.1 in NE 6.4 mph 14.5 mph 93 % 0.0 in
10:37 7.9 °F 6.7 °F 1035.4 in NNE 4.8 mph 14.5 mph 92 % 0.0 in
10:42 8.2 °F 7.1 °F 1035.4 in North 11.3 mph 16.1 mph 93 % 0.0 in
10:47 8.2 °F 7.1 °F 1035.4 in NNW 6.4 mph 16.1 mph 93 % 0.0 in
10:52 8.2 °F 7.0 °F 1035.4 in NNW 4.8 mph 16.1 mph 92 % 0.0 in
10:57 8.3 °F 7.1 °F 1035.1 in West 1.6 mph 12.9 mph 92 % 0.0 in
11:02 8.5 °F 7.3 °F 1035.1 in NNW 3.2 mph 12.9 mph 92 % 0.0 in
11:12 9.0 °F 7.6 °F 1035.1 in NW 3.2 mph 12.9 mph 91 % 0.0 in
11:17 9.3 °F 7.7 °F 1035.1 in NNE 1.6 mph 12.9 mph 90 % 0.0 in
11:22 9.5 °F 7.6 °F 1035.4 in NNW 3.2 mph 12.9 mph 88 % 0.0 in
11:27 9.6 °F 7.7 °F 1035.1 in NNW 4.8 mph 16.1 mph 88 % 0.0 in
11:32 9.7 °F 8.0 °F 1035.1 in NE 16.1 mph 16.1 mph 89 % 0.0 in
11:37 9.7 °F 8.0 °F 1035.4 in NE 1.6 mph 16.1 mph 89 % 0.0 in
11:42 10.0 °F 8.1 °F 1035.4 in NNE 3.2 mph 17.7 mph 88 % 0.0 in
11:47 10.3 °F 8.2 °F 1035.4 in NNE 6.4 mph 17.7 mph 87 % 0.0 in
11:57 10.4 °F 8.2 °F 1035.4 in East 3.2 mph 14.5 mph 86 % 0.0 in
12:02 10.8 °F 8.6 °F 1035.4 in Calm   11.3 mph 86 % 0.0 in
12:07 10.8 °F 8.4 °F 1035.4 in NE 3.2 mph 11.3 mph 85 % 0.0 in
12:12 11.2 °F 8.6 °F 1035.4 in ENE 3.2 mph 11.3 mph 84 % 0.0 in
12:17 11.2 °F 8.4 °F 1035.4 in East 4.8 mph 11.3 mph 83 % 0.0 in
12:22 11.2 °F 8.6 °F 1035.4 in NE 6.4 mph 11.3 mph 84 % 0.0 in
12:32 11.7 °F 8.9 °F 1035.4 in NE 6.4 mph 11.3 mph 83 % 0.0 in
12:42 12.0 °F 8.8 °F 1035.1 in NNE 4.8 mph 11.3 mph 81 % 0.0 in
12:52 12.1 °F 8.9 °F 1035.1 in ENE 6.4 mph 14.5 mph 81 % 0.0 in
12:57 12.3 °F 8.9 °F 1035.1 in North 3.2 mph 14.5 mph 80 % 0.0 in
13:02 12.3 °F 8.9 °F 1035.1 in Calm   17.7 mph 80 % 0.0 in
13:07 12.5 °F 8.4 °F 1034.8 in NNE 3.2 mph 17.7 mph 76 % 0.0 in
13:12 12.6 °F 9.1 °F 1034.8 in NNW 4.8 mph 17.7 mph 79 % 0.0 in
13:17 12.9 °F 8.8 °F 1034.8 in NNE 4.8 mph 16.1 mph 76 % 0.0 in
13:22 13.1 °F 8.4 °F 1034.8 in Calm   16.1 mph 73 % 0.0 in
13:27 13.1 °F 8.4 °F 1034.8 in WNW 1.6 mph 11.3 mph 73 % 0.0 in
13:32 13.3 °F 8.4 °F 1034.8 in WNW 1.6 mph 11.3 mph 72 % 0.0 in
13:37 13.4 °F 8.7 °F 1034.8 in North 4.8 mph 11.3 mph 73 % 0.0 in
13:42 13.4 °F 8.7 °F 1034.8 in Calm   12.9 mph 73 % 0.0 in
13:47 13.6 °F 8.4 °F 1034.8 in NNE 12.9 mph 12.9 mph 71 % 0.0 in
13:57 14.0 °F 8.4 °F 1034.8 in Calm   16.1 mph 69 % 0.0 in
14:02 14.4 °F 9.0 °F 1034.8 in North 4.8 mph 16.1 mph 70 % 0.0 in
14:07 14.5 °F 9.1 °F 1034.4 in NNE 3.2 mph 8.0 mph 70 % 0.0 in
14:12 14.3 °F 8.3 °F 1034.4 in NNW 11.3 mph 11.3 mph 67 % 0.0 in
14:17 14.3 °F 8.0 °F 1034.4 in NW 1.6 mph 11.3 mph 66 % 0.0 in
14:27 14.4 °F 8.3 °F 1034.4 in NNW 4.8 mph 11.3 mph 67 % 0.0 in
14:32 14.6 °F 7.6 °F 1034.4 in NW 8.0 mph 11.3 mph 63 % 0.0 in
14:37 14.6 °F 7.9 °F 1034.4 in NE 3.2 mph 11.3 mph 64 % 0.0 in
14:42 14.7 °F 8.0 °F 1034.1 in Calm   11.3 mph 64 % 0.0 in
14:47 14.9 °F 7.9 °F 1034.1 in NNE 1.6 mph 9.7 mph 63 % 0.0 in
14:52 14.8 °F 8.1 °F 1034.1 in West 4.8 mph 11.3 mph 64 % 0.0 in
14:57 14.8 °F 7.6 °F 1034.1 in WNW 1.6 mph 11.3 mph 62 % 0.0 in
15:02 14.6 °F 7.6 °F 1034.1 in Calm   11.3 mph 63 % 0.0 in
15:07 14.6 °F 7.4 °F 1034.1 in NE 9.7 mph 11.3 mph 62 % 0.0 in
15:17 14.7 °F 7.3 °F 1033.7 in NE 3.2 mph 12.9 mph 61 % 0.0 in
15:22 14.7 °F 6.8 °F 1033.7 in ENE 4.8 mph 12.9 mph 59 % 0.0 in
15:27 14.8 °F 7.1 °F 1033.7 in WNW 1.6 mph 12.9 mph 60 % 0.0 in
15:37 15.2 °F 6.5 °F 1033.7 in NW 3.2 mph 9.7 mph 56 % 0.0 in
15:42 15.1 °F 6.6 °F 1033.7 in NW 1.6 mph 11.3 mph 57 % 0.0 in
15:47 14.9 °F 6.5 °F 1033.7 in East 3.2 mph 12.9 mph 57 % 0.0 in
15:52 15.0 °F 5.5 °F 1033.7 in NW 4.8 mph 12.9 mph 53 % 0.0 in
15:57 15.1 °F 5.9 °F 1033.4 in North 8.0 mph 12.9 mph 54 % 0.0 in
16:02 15.0 °F 5.5 °F 1033.4 in NNE 3.2 mph 9.7 mph 53 % 0.0 in
16:07 15.2 °F 6.2 °F 1033.4 in NNW 1.6 mph 9.7 mph 55 % 0.0 in
16:12 15.3 °F 6.3 °F 1033.4 in WNW 3.2 mph 9.7 mph 55 % 0.0 in
16:17 15.6 °F 6.3 °F 1033.4 in Calm   8.0 mph 54 % 0.0 in
16:22 15.7 °F 6.4 °F 1033.4 in NW 6.4 mph 8.0 mph 54 % 0.0 in
16:27 15.4 °F 6.4 °F 1033.4 in North 1.6 mph 9.7 mph 55 % 0.0 in
16:32 15.3 °F 6.3 °F 1033.4 in NE 12.9 mph 12.9 mph 55 % 0.0 in
16:37 15.3 °F 6.3 °F 1033.4 in North 8.0 mph 12.9 mph 55 % 0.0 in
16:42 15.3 °F 6.3 °F 1033.4 in NNW 4.8 mph 12.9 mph 55 % 0.0 in
16:47 15.3 °F 6.0 °F 1033.4 in Calm   12.9 mph 54 % 0.0 in
16:52 15.4 °F 6.7 °F 1033.4 in NNE 8.0 mph 12.9 mph 56 % 0.0 in
16:57 15.4 °F 6.9 °F 1033.4 in NNW 4.8 mph 14.5 mph 57 % 0.0 in
17:02 15.2 °F 6.5 °F 1033.4 in NW 1.6 mph 14.5 mph 56 % 0.0 in
17:07 15.1 °F 6.4 °F 1033.4 in NNE 8.0 mph 14.5 mph 56 % 0.0 in
17:12 15.1 °F 6.9 °F 1033.4 in NNE 6.4 mph 12.9 mph 58 % 0.0 in
17:17 15.0 °F 6.3 °F 1033.4 in North 4.8 mph 12.9 mph 56 % 0.0 in
17:22 15.0 °F 7.1 °F 1033.4 in North 8.0 mph 12.9 mph 59 % 0.0 in
17:27 14.9 °F 6.5 °F 1033.7 in NNE 11.3 mph 14.5 mph 57 % 0.0 in
17:32 14.8 °F 6.6 °F 1033.7 in NNW 6.4 mph 14.5 mph 58 % 0.0 in
17:37 14.8 °F 6.6 °F 1033.7 in NNE 8.0 mph 14.5 mph 58 % 0.0 in
17:42 14.7 °F 6.5 °F 1033.7 in NNW 6.4 mph 16.1 mph 58 % 0.0 in
17:47 14.6 °F 6.4 °F 1033.7 in NNW 4.8 mph 16.1 mph 58 % 0.0 in
17:52 14.6 °F 6.4 °F 1033.7 in NW 4.8 mph 16.1 mph 58 % 0.0 in
17:57 14.4 °F 6.2 °F 1033.7 in NNW 9.7 mph 12.9 mph 58 % 0.0 in
18:02 14.4 °F 6.2 °F 1033.7 in NNW 3.2 mph 12.9 mph 58 % 0.0 in
18:07 14.4 °F 6.2 °F 1033.7 in NNW 6.4 mph 12.9 mph 58 % 0.0 in
18:12 14.3 °F 6.4 °F 1033.7 in North 4.8 mph 12.9 mph 59 % 0.0 in
18:17 14.2 °F 6.3 °F 1033.7 in North 6.4 mph 12.9 mph 59 % 0.0 in
18:22 14.0 °F 6.4 °F 1033.7 in NNW 1.6 mph 9.7 mph 60 % 0.0 in
18:32 13.6 °F 6.2 °F 1033.7 in North 3.2 mph 9.7 mph 61 % 0.0 in
18:42 13.2 °F 5.8 °F 1033.7 in North 3.2 mph 8.0 mph 61 % 0.0 in
18:47 13.1 °F 5.7 °F 1033.7 in North 3.2 mph 8.0 mph 61 % 0.0 in
18:57 12.7 °F 5.8 °F 1034.1 in NNW 1.6 mph 6.4 mph 63 % 0.0 in
19:02 12.6 °F 6.0 °F 1034.1 in NW 1.6 mph 4.8 mph 64 % 0.0 in
19:07 12.6 °F 6.0 °F 1033.7 in NNW 1.6 mph 4.8 mph 64 % 0.0 in
19:12 12.5 °F 5.9 °F 1033.7 in NW 1.6 mph 4.8 mph 64 % 0.0 in
19:17 12.4 °F 6.0 °F 1033.7 in NW 1.6 mph 4.8 mph 65 % 0.0 in
19:22 12.3 °F 5.9 °F 1033.7 in NW 1.6 mph 4.8 mph 65 % 0.0 in
19:27 12.2 °F 6.0 °F 1033.7 in NNW 1.6 mph 4.8 mph 66 % 0.0 in
19:37 11.9 °F 6.2 °F 1033.7 in NNW 3.2 mph 4.8 mph 68 % 0.0 in
19:42 11.7 °F 6.2 °F 1034.1 in NNW 1.6 mph 4.8 mph 69 % 0.0 in
19:47 11.5 °F 6.2 °F 1034.1 in NNW 4.8 mph 4.8 mph 70 % 0.0 in
19:52 11.3 °F 6.2 °F 1034.1 in NW 3.2 mph 4.8 mph 71 % 0.0 in
19:57 11.1 °F 6.2 °F 1034.1 in Calm   4.8 mph 72 % 0.0 in
20:02 10.8 °F 6.2 °F 1034.1 in Calm   4.8 mph 73 % 0.0 in
20:07 10.6 °F 6.0 °F 1034.1 in Calm   3.2 mph 73 % 0.0 in
20:12 10.4 °F 6.0 °F 1034.1 in NNW 1.6 mph 3.2 mph 74 % 0.0 in
20:17 10.2 °F 5.8 °F 1034.1 in Calm   3.2 mph 74 % 0.0 in
20:22 10.1 °F 5.9 °F 1034.1 in Calm   3.2 mph 75 % 0.0 in
20:27 10.0 °F 5.8 °F 1034.1 in Calm   3.2 mph 75 % 0.0 in
20:32 9.9 °F 5.9 °F 1034.1 in Calm   3.2 mph 76 % 0.0 in
20:42 9.7 °F 5.7 °F 1034.1 in Calm   3.2 mph 76 % 0.0 in
20:47 9.6 °F 5.6 °F 1034.1 in Calm   3.2 mph 76 % 0.0 in
20:52 9.6 °F 5.8 °F 1034.1 in Calm   3.2 mph 77 % 0.0 in
20:57 9.4 °F 5.6 °F 1034.4 in Calm   3.2 mph 77 % 0.0 in
21:02 9.4 °F 5.6 °F 1034.4 in North 1.6 mph 4.8 mph 77 % 0.0 in
21:12 9.6 °F 5.6 °F 1034.4 in North 3.2 mph 6.4 mph 76 % 0.0 in
21:17 9.6 °F 5.6 °F 1034.4 in WNW 3.2 mph 6.4 mph 76 % 0.0 in
21:22 9.6 °F 5.6 °F 1034.4 in NNW 3.2 mph 4.8 mph 76 % 0.0 in
21:27 9.6 °F 5.6 °F 1034.4 in NNW 1.6 mph 4.8 mph 76 % 0.0 in
21:32 9.4 °F 5.6 °F 1034.4 in North 1.6 mph 6.4 mph 77 % 0.0 in
21:37 9.3 °F 5.5 °F 1034.4 in Calm   6.4 mph 77 % 0.0 in
21:42 9.1 °F 5.3 °F 1034.4 in Calm   6.4 mph 77 % 0.0 in
21:47 8.9 °F 5.3 °F 1034.4 in Calm   4.8 mph 78 % 0.0 in
21:52 8.8 °F 5.4 °F 1034.4 in Calm   3.2 mph 79 % 0.0 in
21:57 8.7 °F 5.3 °F 1034.4 in Calm   3.2 mph 79 % 0.0 in
22:02 8.7 °F 5.3 °F 1034.4 in Calm   3.2 mph 79 % 0.0 in
22:07 8.6 °F 5.2 °F 1034.4 in Calm   1.6 mph 79 % 0.0 in
22:12 8.4 °F 5.0 °F 1034.4 in Calm   1.6 mph 79 % 0.0 in
22:17 8.1 °F 5.0 °F 1034.4 in WNW 1.6 mph 3.2 mph 81 % 0.0 in
22:22 7.9 °F 4.8 °F 1034.4 in West 3.2 mph 3.2 mph 81 % 0.0 in
22:27 7.8 °F 4.9 °F 1034.4 in West 1.6 mph 3.2 mph 82 % 0.0 in
22:32 7.7 °F 4.6 °F 1034.4 in WNW 1.6 mph 3.2 mph 81 % 0.0 in
22:37 7.7 °F 4.8 °F 1034.1 in WNW 1.6 mph 3.2 mph 82 % 0.0 in
22:42 7.9 °F 4.7 °F 1034.4 in WNW 1.6 mph 3.2 mph 80 % 0.0 in
22:47 8.1 °F 4.7 °F 1034.4 in Calm   3.2 mph 79 % 0.0 in
22:57 8.4 °F 4.4 °F 1034.4 in Calm   3.2 mph 76 % 0.0 in
23:02 8.4 °F 4.4 °F 1034.4 in NW 4.8 mph 4.8 mph 76 % 0.0 in
23:07 8.4 °F 4.4 °F 1034.4 in NW 3.2 mph 4.8 mph 76 % 0.0 in
23:12 8.4 °F 4.2 °F 1034.4 in NNW 1.6 mph 4.8 mph 75 % 0.0 in
23:17 8.5 °F 4.3 °F 1034.4 in NW 1.6 mph 4.8 mph 75 % 0.0 in
23:22 8.4 °F 4.2 °F 1034.4 in NW 3.2 mph 4.8 mph 75 % 0.0 in
23:32 8.4 °F 4.2 °F 1034.4 in NW 3.2 mph 4.8 mph 75 % 0.0 in
23:37 8.5 °F 4.5 °F 1034.4 in NW 3.2 mph 6.4 mph 76 % 0.0 in
23:42 8.6 °F 4.6 °F 1034.1 in NW 3.2 mph 6.4 mph 76 % 0.0 in
23:47 8.6 °F 4.6 °F 1034.1 in NW 1.6 mph 6.4 mph 76 % 0.0 in
23:57 8.5 °F 4.9 °F 1034.1 in North 1.6 mph 6.4 mph 78 % 0.0 in
Meteo18
Compliments of Weather Underground - 4 mb

Script developed by  Jim McMurry - jmcmurry@mwt.net Adapted for the template by  Wim van der Kuil - Leuven-Template.eu

You find our weather info also at:

European Weather Network

Weather Underground

Equipment we use:

Weather-station
Davis Vue

Weather-program
Meteobridge

Weather-server
Raspberry PI 2 B+

Provider
1 and 1

Davis Vue

Meteobridge

Raspberry PI 2 B+

1 and 1